Time;durP1;ratioP1;P1;durP2;ratioP2;P2;SDS_P1;SDS_P2;PMS_P1;PMS_P2;Temp;Humidity;BMP_temperature;BMP_pressure;BME280_temperature;BME280_humidity;BME280_pressure;Samples;Min_cycle;Max_cycle;Signal;HPM_P1;HPM_P2
2021/10/25 00:02:02;;;;;;;7.13;5.40;;;5.70;98.00;;;;;;5029916;28;20108;-79
2021/10/25 00:04:28;;;;;;;6.35;4.65;;;5.60;98.10;;;;;;5029906;28;20038;-78
2021/10/25 00:06:53;;;;;;;12.27;5.13;;;5.60;98.20;;;;;;5030011;28;20470;-79
2021/10/25 00:09:19;;;;;;;9.57;5.25;;;5.70;98.20;;;;;;5029499;28;20037;-79
2021/10/25 00:11:44;;;;;;;10.43;5.35;;;5.70;98.30;;;;;;5029555;28;20493;-79
2021/10/25 00:14:11;;;;;;;6.50;4.45;;;5.60;98.40;;;;;;5029400;28;20059;-79
2021/10/25 00:16:37;;;;;;;9.48;5.00;;;5.70;98.40;;;;;;5009665;28;20038;-79
2021/10/25 00:19:04;;;;;;;12.25;5.75;;;5.70;98.40;;;;;;5020336;28;20638;-79
2021/10/25 00:21:30;;;;;;;8.30;4.95;;;5.70;98.40;;;;;;5029820;28;20037;-78
2021/10/25 00:23:55;;;;;;;9.93;5.22;;;5.70;98.50;;;;;;5029601;28;20045;-79
2021/10/25 00:26:21;;;;;;;12.02;5.05;;;5.70;98.50;;;;;;5029769;28;20072;-78
2021/10/25 00:28:46;;;;;;;10.68;6.00;;;5.70;98.50;;;;;;5028481;28;20496;-79
2021/10/25 00:31:12;;;;;;;9.18;5.03;;;5.70;98.40;;;;;;5029596;28;20033;-78
2021/10/25 00:33:38;;;;;;;13.52;5.57;;;5.70;98.30;;;;;;5029470;28;20030;-78
2021/10/25 00:36:04;;;;;;;9.80;5.18;;;5.70;98.30;;;;;;5029594;28;20036;-80
2021/10/25 00:38:29;;;;;;;8.40;4.45;;;5.70;98.20;;;;;;5029168;28;20029;-78
2021/10/25 00:40:54;;;;;;;11.20;5.57;;;5.80;98.20;;;;;;5029251;28;20030;-80
2021/10/25 00:43:20;;;;;;;8.75;5.07;;;5.70;98.20;;;;;;5029686;28;20033;-80
2021/10/25 00:45:45;;;;;;;7.88;4.97;;;5.80;98.20;;;;;;5029488;28;20110;-80
2021/10/25 00:48:11;;;;;;;11.20;4.53;;;5.80;98.20;;;;;;5029175;28;20038;-77
2021/10/25 00:50:37;;;;;;;7.68;4.95;;;5.70;98.10;;;;;;5029368;28;20505;-80
2021/10/25 00:53:04;;;;;;;5.97;5.10;;;5.80;98.10;;;;;;5029749;28;20056;-79
2021/10/25 00:55:30;;;;;;;10.13;5.90;;;5.70;98.00;;;;;;5032934;28;20036;-78
2021/10/25 00:57:56;;;;;;;9.88;5.15;;;5.70;98.10;;;;;;5032622;28;20033;-79
2021/10/25 01:00:22;;;;;;;7.68;4.32;;;5.70;98.10;;;;;;5033514;28;20032;-78
2021/10/25 01:02:48;;;;;;;7.80;5.05;;;5.70;98.10;;;;;;5031369;28;20032;-78
2021/10/25 01:05:14;;;;;;;8.75;4.55;;;5.60;98.10;;;;;;5033635;28;20033;-78
2021/10/25 01:07:40;;;;;;;7.22;4.55;;;5.60;98.20;;;;;;5032856;28;20036;-80
2021/10/25 01:10:06;;;;;;;7.10;4.57;;;5.60;98.30;;;;;;5033240;28;20060;-79
2021/10/25 01:12:34;;;;;;;8.75;5.07;;;5.50;98.30;;;;;;5032699;28;20083;-78
2021/10/25 01:14:59;;;;;;;10.05;4.65;;;5.50;98.40;;;;;;5033379;28;20041;-78
2021/10/25 01:17:26;;;;;;;6.50;4.63;;;5.50;98.50;;;;;;5033235;28;20668;-78
2021/10/25 01:19:53;;;;;;;11.52;5.72;;;5.50;98.60;;;;;;5032177;28;20089;-78
2021/10/25 01:22:20;;;;;;;10.32;5.28;;;5.50;98.70;;;;;;5033040;28;20050;-78
2021/10/25 01:24:46;;;;;;;7.85;4.85;;;5.50;98.90;;;;;;5032932;28;20083;-78
2021/10/25 01:27:11;;;;;;;6.97;4.65;;;5.50;99.10;;;;;;5032973;28;20037;-78
2021/10/25 01:29:36;;;;;;;9.63;4.82;;;5.50;99.00;;;;;;5032011;28;20034;-78
2021/10/25 01:32:02;;;;;;;9.73;4.88;;;5.60;99.00;;;;;;5032065;28;20040;-79
2021/10/25 01:34:28;;;;;;;8.48;4.50;;;5.60;98.80;;;;;;5032760;28;20037;-78
2021/10/25 01:36:53;;;;;;;9.07;5.30;;;5.60;98.70;;;;;;5031629;28;20128;-78
2021/10/25 01:39:19;;;;;;;7.05;4.60;;;5.70;98.50;;;;;;5032241;28;20029;-79
2021/10/25 01:41:44;;;;;;;8.30;5.10;;;5.70;98.40;;;;;;5032292;28;20029;-78
2021/10/25 01:44:11;;;;;;;8.63;4.55;;;5.70;98.20;;;;;;5032839;28;20060;-78
2021/10/25 01:46:37;;;;;;;8.60;4.93;;;5.70;98.20;;;;;;5031256;28;20029;-78
2021/10/25 01:49:06;;;;;;;7.30;4.32;;;5.70;98.20;;;;;;5031873;28;20516;-78
2021/10/25 01:51:31;;;;;;;8.90;4.93;;;5.70;98.30;;;;;;5032541;28;20026;-78
2021/10/25 01:53:57;;;;;;;8.18;4.43;;;5.70;98.30;;;;;;5032288;28;20045;-79
2021/10/25 01:56:23;;;;;;;7.80;4.45;;;5.70;98.30;;;;;;5032587;28;20025;-79
2021/10/25 01:58:48;;;;;;;9.65;4.50;;;5.70;98.20;;;;;;5031239;28;20040;-78
2021/10/25 02:01:17;;;;;;;9.88;4.90;;;5.70;98.20;;;;;;5032517;28;20463;-78
2021/10/25 02:03:43;;;;;;;6.28;4.75;;;5.70;98.50;;;;;;5032437;28;20483;-78
2021/10/25 02:06:08;;;;;;;10.27;4.85;;;5.70;98.30;;;;;;5029212;28;20025;-79
2021/10/25 02:08:34;;;;;;;8.38;4.43;;;5.70;98.40;;;;;;5031603;28;20413;-78
2021/10/25 02:10:59;;;;;;;8.60;5.50;;;5.80;98.30;;;;;;5034383;28;20031;-79
2021/10/25 02:13:25;;;;;;;7.55;4.47;;;5.80;98.10;;;;;;5032817;28;20041;-79
2021/10/25 02:15:53;;;;;;;8.25;3.97;;;5.80;98.00;;;;;;5032006;28;20033;-78
2021/10/25 02:18:19;;;;;;;7.00;4.90;;;5.80;97.80;;;;;;5031560;28;20044;-78
2021/10/25 02:20:45;;;;;;;8.95;4.45;;;5.80;97.80;;;;;;5031390;28;20107;-78
2021/10/25 02:23:10;;;;;;;11.40;5.10;;;5.80;97.80;;;;;;5032311;28;20478;-78
2021/10/25 02:25:37;;;;;;;6.93;4.63;;;5.80;97.80;;;;;;5029996;28;20025;-79
2021/10/25 02:28:03;;;;;;;5.38;3.97;;;5.80;97.90;;;;;;5030910;28;20087;-79
2021/10/25 02:30:29;;;;;;;6.90;3.80;;;5.80;97.90;;;;;;5031757;28;20060;-78
2021/10/25 02:32:55;;;;;;;8.25;4.07;;;5.80;97.90;;;;;;5031438;28;20105;-79
2021/10/25 02:35:21;;;;;;;8.30;3.78;;;5.80;97.90;;;;;;5031746;28;20116;-79
2021/10/25 02:37:46;;;;;;;6.25;3.78;;;5.90;97.90;;;;;;5029717;28;20685;-79
2021/10/25 02:40:12;;;;;;;5.60;4.05;;;5.90;98.00;;;;;;5031570;28;20431;-79
2021/10/25 02:42:38;;;;;;;7.18;4.32;;;5.90;98.00;;;;;;5031758;28;20049;-79
2021/10/25 02:45:04;;;;;;;10.25;3.50;;;6.00;97.90;;;;;;5031135;28;20040;-80
2021/10/25 02:47:29;;;;;;;5.20;3.30;;;6.00;97.90;;;;;;5030046;28;20026;-79
2021/10/25 02:49:56;;;;;;;6.45;3.95;;;6.00;97.70;;;;;;5030895;28;20092;-79
2021/10/25 02:52:22;;;;;;;7.10;4.35;;;6.10;97.80;;;;;;5031109;28;20064;-79
2021/10/25 02:54:48;;;;;;;7.95;4.13;;;6.10;97.50;;;;;;5030959;28;20072;-79
2021/10/25 02:57:14;;;;;;;5.88;3.70;;;6.20;97.50;;;;;;5031520;28;20080;-78
2021/10/25 02:59:40;;;;;;;9.13;4.35;;;6.20;97.40;;;;;;5030528;28;20053;-79
2021/10/25 03:02:06;;;;;;;8.13;3.97;;;6.20;97.50;;;;;;5030703;28;20509;-79
2021/10/25 03:04:31;;;;;;;10.07;3.63;;;6.20;97.50;;;;;;5030926;28;20363;-79
2021/10/25 03:06:57;;;;;;;5.20;3.15;;;6.30;97.50;;;;;;5030889;28;20037;-78
2021/10/25 03:09:23;;;;;;;7.47;3.40;;;6.30;97.40;;;;;;5030794;28;20030;-79
2021/10/25 03:11:48;;;;;;;6.70;3.85;;;6.30;97.40;;;;;;5030838;28;20030;-79
2021/10/25 03:14:14;;;;;;;5.18;3.33;;;6.40;97.40;;;;;;5030256;28;20419;-79
2021/10/25 03:16:40;;;;;;;5.03;3.25;;;6.40;97.50;;;;;;5030642;28;20060;-79
2021/10/25 03:19:05;;;;;;;3.15;2.85;;;6.40;97.40;;;;;;5031045;28;20029;-79
2021/10/25 03:21:31;;;;;;;7.10;3.88;;;6.50;97.40;;;;;;5030592;28;20041;-78
2021/10/25 03:23:58;;;;;;;7.43;2.90;;;6.60;97.40;;;;;;5031138;28;20045;-79
2021/10/25 03:26:24;;;;;;;4.32;3.10;;;6.60;97.10;;;;;;5030923;28;20060;-78
2021/10/25 03:28:50;;;;;;;7.38;3.42;;;6.70;97.10;;;;;;5045131;28;20033;-79
2021/10/25 03:31:18;;;;;;;5.20;3.13;;;6.80;96.90;;;;;;5030370;28;20080;-79
2021/10/25 03:33:44;;;;;;;8.52;3.03;;;6.90;96.70;;;;;;5030439;28;20029;-79
2021/10/25 03:36:10;;;;;;;6.72;3.55;;;7.00;96.60;;;;;;5009337;28;20502;-80
2021/10/25 03:38:38;;;;;;;10.15;3.40;;;7.00;96.30;;;;;;5025443;28;20112;-78
2021/10/25 03:41:09;;;;;;;4.35;2.70;;;7.10;96.20;;;;;;5008928;28;20034;-79
2021/10/25 03:43:38;;;;;;;11.02;3.17;;;7.20;96.10;;;;;;5010932;28;20026;-78
2021/10/25 03:46:15;;;;;;;5.38;2.90;;;7.20;95.80;;;;;;5010759;28;20125;-79
2021/10/25 03:48:50;;;;;;;5.50;3.35;;;7.30;95.80;;;;;;5010141;28;20026;-79
2021/10/25 03:51:17;;;;;;;5.75;3.20;;;7.40;95.50;;;;;;5025421;28;20029;-78
2021/10/25 03:56:49;;;;;;;3.53;2.67;;;7.50;95.40;;;;;;5009068;28;20501;-79
2021/10/25 03:59:41;;;;;;;4.53;2.28;;;7.50;95.30;;;;;;5009750;28;20478;-78
2021/10/25 04:02:26;;;;;;;4.47;2.60;;;7.50;95.20;;;;;;5016109;28;20029;-79
2021/10/25 04:29:30;;;;;;;7.97;2.70;;;7.60;95.10;;;;;;5028582;28;20048;-80
2021/10/25 04:31:56;;;;;;;6.50;3.40;;;7.60;95.20;;;;;;5029112;28;20025;-79
2021/10/25 04:34:21;;;;;;;5.40;2.78;;;7.60;95.00;;;;;;5029604;28;20133;-79
2021/10/25 04:36:47;;;;;;;3.05;2.28;;;7.60;95.00;;;;;;5029246;28;20398;-79
2021/10/25 04:39:13;;;;;;;4.93;2.60;;;7.60;94.90;;;;;;5029287;28;20037;-79
2021/10/25 04:41:40;;;;;;;6.00;3.30;;;7.60;94.80;;;;;;5029109;28;20036;-79
2021/10/25 04:44:06;;;;;;;7.22;3.28;;;7.60;95.00;;;;;;5029819;28;20029;-81
2021/10/25 04:46:32;;;;;;;8.65;3.65;;;7.60;95.00;;;;;;5029562;28;20029;-80
2021/10/25 04:48:58;;;;;;;7.90;3.55;;;7.50;95.00;;;;;;5028780;28;20040;-80
2021/10/25 04:51:23;;;;;;;6.20;3.42;;;7.50;95.10;;;;;;5029105;28;20040;-79
2021/10/25 04:53:49;;;;;;;6.03;2.97;;;7.50;95.00;;;;;;5029195;28;20030;-81
2021/10/25 04:56:14;;;;;;;8.40;3.03;;;7.50;95.10;;;;;;5029708;28;20140;-80
2021/10/25 04:58:40;;;;;;;5.32;3.17;;;7.40;95.10;;;;;;5028726;28;20041;-78
2021/10/25 05:01:06;;;;;;;6.05;3.08;;;7.40;95.10;;;;;;5028951;28;20082;-79
2021/10/25 05:03:35;;;;;;;4.38;3.42;;;7.40;95.30;;;;;;5029792;28;20095;-79
2021/10/25 05:06:01;;;;;;;7.22;3.00;;;7.30;95.20;;;;;;5029113;28;20374;-79
2021/10/25 05:08:28;;;;;;;6.18;2.92;;;7.30;95.30;;;;;;5028986;28;20022;-78
2021/10/25 05:10:54;;;;;;;6.55;3.17;;;7.30;95.30;;;;;;5028913;28;20026;-78
2021/10/25 05:13:20;;;;;;;6.35;3.45;;;7.30;95.40;;;;;;5029584;28;20104;-78
2021/10/25 05:15:45;;;;;;;5.05;3.08;;;7.30;95.50;;;;;;5029208;28;20080;-78
2021/10/25 05:18:11;;;;;;;7.50;3.30;;;7.30;95.50;;;;;;5028554;28;20471;-78
2021/10/25 05:20:36;;;;;;;6.43;2.55;;;7.30;95.60;;;;;;5029105;28;20033;-78
2021/10/25 05:23:01;;;;;;;5.43;3.30;;;7.20;95.60;;;;;;5029123;28;20371;-79
2021/10/25 05:25:28;;;;;;;7.85;3.80;;;7.20;95.60;;;;;;5029116;28;20041;-79
2021/10/25 05:27:54;;;;;;;5.63;3.15;;;7.20;95.60;;;;;;5028065;28;20516;-79
2021/10/25 05:30:20;;;;;;;7.43;3.55;;;7.20;95.70;;;;;;5029438;28;20029;-78
2021/10/25 05:32:46;;;;;;;6.45;3.38;;;7.20;95.60;;;;;;5028594;28;20053;-78
2021/10/25 05:35:11;;;;;;;5.40;3.15;;;7.20;95.60;;;;;;5028841;28;20028;-78
2021/10/25 05:37:37;;;;;;;8.60;3.58;;;7.20;95.60;;;;;;5028660;28;20034;-79
2021/10/25 05:40:03;;;;;;;9.25;4.28;;;7.20;95.60;;;;;;5030286;28;20025;-79
2021/10/25 05:42:29;;;;;;;7.15;3.63;;;7.20;95.70;;;;;;5032682;28;20021;-79
2021/10/25 05:44:54;;;;;;;5.15;2.85;;;7.20;95.70;;;;;;5032557;28;20678;-79
2021/10/25 05:47:20;;;;;;;9.20;5.20;;;7.20;95.70;;;;;;5032895;28;20056;-78
2021/10/25 05:49:45;;;;;;;10.50;3.03;;;7.20;95.90;;;;;;5032035;28;20467;-79
2021/10/25 05:52:11;;;;;;;6.78;3.60;;;7.20;95.80;;;;;;5032472;28;20037;-79
2021/10/25 05:54:36;;;;;;;5.82;3.15;;;7.20;95.80;;;;;;5032490;28;20033;-79
2021/10/25 05:57:02;;;;;;;5.65;3.38;;;7.20;95.80;;;;;;5032350;28;20136;-79
2021/10/25 05:59:29;;;;;;;6.45;3.83;;;7.20;95.80;;;;;;5030580;28;20025;-79
2021/10/25 06:02:09;;;;;;;5.68;3.08;;;7.10;95.90;;;;;;5031483;28;20386;-79
2021/10/25 06:04:36;;;;;;;3.60;2.50;;;7.10;95.80;;;;;;5032429;28;20026;-79
2021/10/25 06:07:02;;;;;;;4.80;3.10;;;7.10;96.10;;;;;;5033421;28;20013;-80
2021/10/25 06:09:28;;;;;;;5.68;3.35;;;7.10;96.10;;;;;;5031663;28;20091;-80
2021/10/25 06:11:54;;;;;;;5.45;3.53;;;7.10;95.90;;;;;;5031940;28;20055;-81
2021/10/25 06:14:27;;;;;;;9.50;4.22;;;7.10;95.80;;;;;;5032149;28;20026;-80
2021/10/25 06:16:58;;;;;;;7.65;3.75;;;7.20;95.80;;;;;;5032052;28;20030;-80
2021/10/25 06:19:23;;;;;;;5.75;2.85;;;7.20;95.90;;;;;;5031180;28;20053;-80
2021/10/25 06:21:49;;;;;;;7.40;3.80;;;7.20;95.90;;;;;;5031753;28;20057;-81
2021/10/25 06:24:14;;;;;;;10.07;3.83;;;7.20;95.90;;;;;;5030549;28;20103;-78
2021/10/25 06:26:40;;;;;;;8.32;3.58;;;7.20;95.70;;;;;;5031810;28;20036;-78
2021/10/25 06:29:05;;;;;;;7.40;3.33;;;7.20;95.70;;;;;;5029700;28;20030;-78
2021/10/25 06:31:31;;;;;;;5.25;3.25;;;7.20;95.70;;;;;;5031277;28;20040;-79
2021/10/25 06:34:00;;;;;;;5.70;3.30;;;7.20;95.80;;;;;;5031906;28;20040;-78
2021/10/25 06:36:25;;;;;;;5.80;3.42;;;7.20;95.80;;;;;;5046938;28;20033;-78
2021/10/25 06:38:58;;;;;;;6.35;3.97;;;7.20;95.80;;;;;;5030722;28;20040;-78
2021/10/25 06:41:24;;;;;;;4.82;3.03;;;7.20;95.80;;;;;;5031462;28;20029;-78
2021/10/25 06:43:51;;;;;;;7.07;3.33;;;7.20;95.80;;;;;;5031567;28;20120;-78
2021/10/25 06:46:17;;;;;;;8.32;3.95;;;7.20;95.70;;;;;;5031631;28;20112;-79
2021/10/25 06:48:43;;;;;;;8.43;3.15;;;7.20;95.70;;;;;;5030835;28;20026;-80
2021/10/25 06:51:09;;;;;;;6.80;3.45;;;7.30;95.70;;;;;;5031043;28;20021;-80
2021/10/25 06:53:34;;;;;;;10.70;4.05;;;7.30;95.70;;;;;;5030937;28;20662;-80
2021/10/25 06:56:00;;;;;;;6.57;3.30;;;7.30;95.70;;;;;;5031387;28;20041;-80
2021/10/25 06:58:25;;;;;;;6.88;4.13;;;7.30;95.60;;;;;;5029484;28;20033;-80
2021/10/25 07:00:51;;;;;;;9.60;4.25;;;7.30;95.60;;;;;;5031329;28;20030;-78
2021/10/25 07:03:17;;;;;;;6.53;2.90;;;7.30;95.50;;;;;;5031265;28;20040;-80
2021/10/25 07:05:43;;;;;;;9.40;4.03;;;7.30;95.50;;;;;;5030858;28;20120;-79
2021/10/25 07:08:09;;;;;;;6.15;3.75;;;7.30;95.60;;;;;;5030404;28;20125;-79
2021/10/25 07:10:36;;;;;;;7.60;3.38;;;7.30;95.70;;;;;;5031286;28;20033;-79
2021/10/25 07:13:02;;;;;;;5.53;3.78;;;7.30;95.80;;;;;;5029724;28;20040;-79
2021/10/25 07:15:29;;;;;;;6.70;3.72;;;7.30;95.70;;;;;;5030550;28;20132;-79
2021/10/25 07:24:01;;;;;;;3.90;3.20;;;7.30;95.80;;;;;;5027856;28;20460;-78
2021/10/25 08:01:58;;;;;;;5.30;3.92;;;8.10;95.20;;;;;;5029445;28;20040;-78
2021/10/25 08:04:45;;;;;;;10.20;4.90;;;8.20;94.80;;;;;;5029030;28;20029;-80
2021/10/25 08:07:17;;;;;;;4.10;3.17;;;8.30;94.80;;;;;;5029754;28;20017;-79
2021/10/25 08:10:09;;;;;;;11.48;4.07;;;8.30;94.90;;;;;;5030456;28;20501;-80
2021/10/25 08:12:30;;;;;;;5.97;3.70;;;8.40;94.80;;;;;;5009557;28;20030;-79
2021/10/25 08:15:04;;;;;;;8.48;4.15;;;8.50;95.00;;;;;;5010189;28;20041;-80
2021/10/25 08:17:41;;;;;;;5.30;3.92;;;8.50;94.70;;;;;;5027545;28;20057;-80
2021/10/25 08:20:08;;;;;;;9.45;4.00;;;8.60;94.60;;;;;;5029770;28;20462;-80
2021/10/25 08:22:34;;;;;;;8.77;3.53;;;8.70;94.40;;;;;;5030141;28;20056;-80
2021/10/25 08:25:01;;;;;;;6.05;3.33;;;8.70;94.40;;;;;;5029577;28;20667;-80
2021/10/25 08:27:26;;;;;;;6.07;3.78;;;8.70;94.40;;;;;;5029568;28;20113;-81
2021/10/25 08:29:52;;;;;;;7.80;4.30;;;8.80;94.30;;;;;;5028459;28;20108;-79
2021/10/25 08:40:34;;;;;;;7.22;4.18;;;8.90;94.30;;;;;;5029631;28;20071;-80
2021/10/25 08:43:00;;;;;;;8.15;4.40;;;9.00;94.30;;;;;;5029732;28;20032;-80
2021/10/25 08:45:30;;;;;;;9.85;4.90;;;9.10;94.30;;;;;;5029391;28;20394;-80
2021/10/25 08:47:57;;;;;;;6.90;3.92;;;9.10;94.40;;;;;;5029033;28;20055;-80
2021/10/25 08:50:29;;;;;;;7.32;4.30;;;9.30;94.30;;;;;;5029491;28;20473;-80
2021/10/25 08:52:57;;;;;;;7.20;4.23;;;9.30;94.20;;;;;;5029349;28;20029;-81
2021/10/25 08:55:22;;;;;;;10.48;4.07;;;9.40;94.10;;;;;;5044463;28;20091;-81
2021/10/25 08:57:49;;;;;;;10.50;4.97;;;9.50;94.10;;;;;;5028351;28;20037;-80
2021/10/25 09:00:19;;;;;;;4.35;3.35;;;9.60;93.80;;;;;;5029396;28;20555;-81
2021/10/25 09:02:59;;;;;;;7.65;4.03;;;9.70;93.80;;;;;;5028806;28;20083;-81
2021/10/25 09:05:25;;;;;;;5.53;3.53;;;9.90;93.80;;;;;;5029157;28;20026;-81
2021/10/25 09:08:00;;;;;;;6.07;3.53;;;10.00;93.70;;;;;;5028892;28;20025;-81
2021/10/25 09:10:31;;;;;;;5.40;3.75;;;10.10;93.30;;;;;;5029354;28;20845;-80
2021/10/25 09:12:58;;;;;;;9.95;5.40;;;10.20;93.30;;;;;;5029185;28;20056;-79
2021/10/25 09:15:26;;;;;;;7.15;3.55;;;10.40;93.20;;;;;;5028899;28;20042;-80
2021/10/25 09:17:52;;;;;;;8.10;4.50;;;10.50;93.10;;;;;;5032938;28;20021;-82
2021/10/25 09:20:17;;;;;;;7.68;4.18;;;10.60;92.70;;;;;;5032990;28;20026;-80
2021/10/25 09:22:44;;;;;;;8.07;4.75;;;10.70;92.70;;;;;;5032795;28;20526;-80
2021/10/25 09:25:09;;;;;;;6.43;3.60;;;10.80;92.70;;;;;;5033197;28;20068;-81
2021/10/25 09:27:40;;;;;;;6.93;3.67;;;10.90;92.70;;;;;;5031252;28;20057;-80
2021/10/25 09:30:10;;;;;;;5.70;4.10;;;11.00;92.40;;;;;;5033320;28;20072;-79
2021/10/25 09:32:36;;;;;;;5.32;3.90;;;11.10;92.10;;;;;;5032358;28;20596;-79
2021/10/25 09:35:05;;;;;;;6.82;4.15;;;11.10;92.10;;;;;;5033104;28;20059;-80
2021/10/25 09:37:42;;;;;;;6.28;3.72;;;11.20;91.90;;;;;;5031323;28;20022;-80
2021/10/25 09:40:49;;;;;;;7.75;3.63;;;11.20;92.10;;;;;;5032540;28;20478;-80
2021/10/25 09:46:02;;;;;;;8.88;4.15;;;11.40;91.80;;;;;;5032732;28;20453;-80
2021/10/25 09:51:12;;;;;;;10.90;4.22;;;11.60;91.90;;;;;;5032505;28;20083;-80
2021/10/25 09:53:43;;;;;;;8.23;5.07;;;11.70;92.20;;;;;;5032529;28;20462;-80
2021/10/25 09:56:14;;;;;;;8.60;5.13;;;11.90;91.60;;;;;;5032558;28;20072;-80
2021/10/25 09:58:47;;;;;;;8.10;4.25;;;12.20;90.90;;;;;;5031744;28;20021;-79
2021/10/25 10:01:14;;;;;;;6.97;4.80;;;12.40;90.80;;;;;;5030742;28;20061;-80
2021/10/25 10:03:43;;;;;;;8.82;4.20;;;12.60;90.60;;;;;;5032654;28;20029;-79
2021/10/25 10:06:09;;;;;;;8.00;3.90;;;12.70;90.30;;;;;;5032755;28;20060;-79
2021/10/25 10:08:35;;;;;;;6.90;4.68;;;12.90;90.40;;;;;;5032047;28;20087;-80
2021/10/25 10:11:02;;;;;;;7.95;4.75;;;13.00;89.60;;;;;;5031999;28;20029;-80
2021/10/25 10:13:28;;;;;;;7.07;4.68;;;13.10;89.60;;;;;;5051186;28;20029;-80
2021/10/25 10:15:57;;;;;;;7.93;4.85;;;13.20;89.10;;;;;;5052026;28;20040;-80
2021/10/25 10:18:26;;;;;;;8.05;4.93;;;13.30;89.50;;;;;;5050023;28;20033;-81
2021/10/25 10:20:56;;;;;;;9.27;4.95;;;13.30;89.30;;;;;;5051769;28;20120;-80
2021/10/25 10:23:23;;;;;;;8.40;4.72;;;13.30;88.50;;;;;;5041262;28;20449;-80
2021/10/25 10:25:52;;;;;;;6.80;5.05;;;13.40;88.20;;;;;;5030447;28;20049;-81
2021/10/25 10:28:30;;;;;;;6.63;4.50;;;13.50;87.90;;;;;;5030138;28;20064;-80
2021/10/25 10:31:03;;;;;;;6.30;4.50;;;13.50;88.00;;;;;;5030271;28;20474;-80
2021/10/25 10:33:41;;;;;;;12.48;5.50;;;13.50;88.00;;;;;;5031977;28;20128;-79
2021/10/25 10:36:17;;;;;;;8.35;5.72;;;13.40;88.10;;;;;;5029992;28;20034;-80
2021/10/25 10:38:54;;;;;;;8.75;5.13;;;13.40;88.60;;;;;;5031153;28;20030;-80
2021/10/25 10:42:06;;;;;;;7.60;5.40;;;13.40;88.20;;;;;;5031089;28;20053;-81
2021/10/25 10:44:32;;;;;;;9.98;5.28;;;13.40;88.40;;;;;;5030824;28;20048;-81
2021/10/25 10:47:02;;;;;;;15.13;5.50;;;13.40;88.80;;;;;;5031521;28;20112;-80
2021/10/25 10:49:49;;;;;;;10.02;5.32;;;13.50;89.30;;;;;;5030855;28;20025;-80
2021/10/25 10:52:24;;;;;;;9.50;4.65;;;13.50;89.10;;;;;;5030945;28;20025;-80
2021/10/25 10:55:09;;;;;;;7.80;5.72;;;13.60;88.30;;;;;;5030873;28;20030;-80
2021/10/25 11:00:34;;;;;;;8.73;5.45;;;13.50;88.60;;;;;;5031581;28;20149;-81
2021/10/25 11:03:04;;;;;;;7.03;5.25;;;13.50;88.60;;;;;;5032740;28;20044;-80
2021/10/25 11:05:38;;;;;;;8.45;5.03;;;13.50;88.60;;;;;;5051248;28;20068;-80
2021/10/25 11:08:09;;;;;;;8.65;5.57;;;13.50;88.70;;;;;;5050677;28;20021;-80
2021/10/25 11:10:40;;;;;;;9.73;4.88;;;13.50;89.40;;;;;;5050942;28;20021;-80
2021/10/25 11:13:15;;;;;;;8.57;6.28;;;13.60;89.80;;;;;;5051130;28;20039;-80
2021/10/25 11:16:09;;;;;;;7.63;5.75;;;13.60;88.70;;;;;;5050828;28;20029;-80
2021/10/25 11:18:37;;;;;;;13.50;5.75;;;13.60;89.00;;;;;;5050572;28;20392;-82
2021/10/25 11:21:23;;;;;;;8.52;5.53;;;13.70;89.00;;;;;;5050319;28;20482;-81
2021/10/25 11:23:55;;;;;;;10.10;5.00;;;13.60;88.30;;;;;;5050983;28;20060;-80
2021/10/25 11:26:37;;;;;;;8.88;6.53;;;13.70;88.60;;;;;;5050442;28;20108;-79
2021/10/25 11:29:14;;;;;;;8.52;5.88;;;13.70;88.40;;;;;;5049988;28;20032;-80
2021/10/25 11:31:43;;;;;;;8.30;5.25;;;13.70;89.30;;;;;;5049700;28;20025;-79
2021/10/25 11:34:23;;;;;;;7.90;5.55;;;13.70;88.30;;;;;;5050751;28;20040;-80
2021/10/25 11:37:22;;;;;;;11.35;5.22;;;13.70;88.00;;;;;;5048829;28;20470;-80
2021/10/25 11:42:32;;;;;;;9.07;4.78;;;13.90;87.50;;;;;;5050271;28;20500;-80
2021/10/25 11:45:13;;;;;;;11.73;5.13;;;13.90;88.10;;;;;;5048996;28;20028;-81
2021/10/25 11:47:42;;;;;;;9.73;5.53;;;14.00;87.80;;;;;;5049743;28;20025;-80
2021/10/25 11:50:14;;;;;;;9.40;5.45;;;14.10;87.70;;;;;;5050331;28;20017;-80
2021/10/25 11:52:46;;;;;;;9.82;6.57;;;14.20;88.00;;;;;;5050049;28;20048;-80
2021/10/25 11:55:15;;;;;;;9.88;5.93;;;14.20;87.70;;;;;;5050172;28;20048;-80
2021/10/25 11:57:56;;;;;;;11.80;5.72;;;14.30;87.90;;;;;;5049650;28;20033;-80
2021/10/25 12:00:24;;;;;;;8.65;4.90;;;14.40;86.30;;;;;;5049808;28;20079;-80
2021/10/25 12:02:50;;;;;;;8.30;5.20;;;14.50;86.40;;;;;;5049567;28;20537;-81
2021/10/25 12:05:24;;;;;;;8.70;5.28;;;14.60;85.60;;;;;;5048486;28;20040;-80
2021/10/25 12:07:55;;;;;;;8.93;4.93;;;14.80;85.60;;;;;;5049049;28;20021;-82
2021/10/25 12:10:24;;;;;;;7.90;5.05;;;14.90;86.10;;;;;;5048848;28;20051;-81
2021/10/25 12:12:54;;;;;;;8.15;4.43;;;15.00;86.00;;;;;;5049169;28;20032;-80
2021/10/25 12:15:20;;;;;;;9.50;5.07;;;15.10;84.10;;;;;;5047503;28;20025;-80
2021/10/25 12:17:48;;;;;;;7.32;4.13;;;15.20;84.40;;;;;;5047438;28;20021;-80
2021/10/25 12:20:23;;;;;;;7.35;4.53;;;15.30;84.30;;;;;;5050080;28;20036;-81
2021/10/25 12:23:09;;;;;;;10.52;4.13;;;15.40;83.60;;;;;;5041403;28;20160;-81
2021/10/25 12:25:38;;;;;;;5.47;3.78;;;15.60;84.00;;;;;;5029702;28;20040;-81
2021/10/25 12:28:14;;;;;;;8.55;3.97;;;15.60;82.60;;;;;;5028845;28;20025;-81
2021/10/25 12:30:41;;;;;;;5.38;3.80;;;15.70;82.80;;;;;;5030242;28;20025;-80
2021/10/25 12:33:06;;;;;;;7.88;4.00;;;15.80;81.80;;;;;;5029433;28;20037;-81
2021/10/25 12:35:41;;;;;;;7.55;3.97;;;15.70;81.30;;;;;;5029604;28;20037;-80
2021/10/25 12:38:13;;;;;;;7.82;4.03;;;15.80;82.00;;;;;;5029209;28;20517;-80
2021/10/25 12:40:45;;;;;;;6.20;4.32;;;15.80;81.50;;;;;;5029289;28;20032;-79
2021/10/25 12:43:12;;;;;;;6.70;3.70;;;15.70;81.90;;;;;;5029437;28;20022;-80
2021/10/25 12:45:41;;;;;;;6.38;4.18;;;15.70;83.10;;;;;;5029437;28;20359;-80
2021/10/25 12:48:15;;;;;;;6.35;4.45;;;15.70;82.10;;;;;;5029102;28;20028;-80
2021/10/25 12:50:44;;;;;;;6.07;3.78;;;15.60;82.10;;;;;;5028744;28;20017;-80
2021/10/25 12:53:12;;;;;;;6.88;3.85;;;15.70;83.50;;;;;;5029589;28;20037;-80
2021/10/25 12:55:39;;;;;;;4.72;3.20;;;15.60;82.80;;;;;;5029253;28;20033;-80
2021/10/25 12:58:09;;;;;;;7.68;3.88;;;15.60;82.30;;;;;;5028272;28;20040;-80
2021/10/25 13:00:36;;;;;;;7.88;3.90;;;15.60;81.80;;;;;;5028304;28;20502;-80
2021/10/25 13:03:11;;;;;;;8.82;4.75;;;15.70;82.30;;;;;;5028661;28;20053;-81
2021/10/25 13:05:38;;;;;;;5.28;3.67;;;15.70;82.80;;;;;;5029772;28;20029;-81
2021/10/25 13:08:06;;;;;;;7.53;4.13;;;15.80;83.00;;;;;;5027511;28;20482;-79
2021/10/25 13:10:38;;;;;;;5.78;3.75;;;15.80;82.20;;;;;;5045131;28;20029;-80
2021/10/25 13:13:07;;;;;;;7.37;4.83;;;15.90;82.50;;;;;;5029206;28;20029;-80
2021/10/25 13:15:34;;;;;;;7.47;3.90;;;15.90;81.30;;;;;;5029975;28;20091;-80
2021/10/25 13:18:01;;;;;;;9.40;4.75;;;16.00;81.50;;;;;;5027224;28;20025;-80
2021/10/25 13:20:29;;;;;;;8.65;4.20;;;15.90;80.40;;;;;;5029583;28;20028;-80
2021/10/25 13:22:57;;;;;;;5.18;3.70;;;16.00;81.00;;;;;;5029400;28;20077;-79
2021/10/25 13:25:24;;;;;;;8.80;4.75;;;15.90;81.10;;;;;;5029153;28;20339;-79
2021/10/25 13:27:52;;;;;;;7.95;4.05;;;16.00;80.80;;;;;;5028541;28;20489;-79
2021/10/25 13:30:19;;;;;;;5.47;3.63;;;15.90;79.70;;;;;;5029078;28;20120;-79
2021/10/25 13:32:45;;;;;;;7.82;4.10;;;15.90;81.10;;;;;;5028766;28;20123;-79
2021/10/25 13:35:13;;;;;;;5.10;4.10;;;16.00;80.50;;;;;;5027646;28;20129;-81
2021/10/25 13:37:39;;;;;;;7.32;4.05;;;15.90;80.50;;;;;;5028507;28;20026;-80
2021/10/25 13:40:06;;;;;;;10.57;5.03;;;15.90;80.70;;;;;;5029188;28;20021;-80
2021/10/25 13:42:32;;;;;;;8.73;4.55;;;15.90;81.30;;;;;;5028696;28;20021;-80
2021/10/25 13:44:57;;;;;;;5.68;3.95;;;15.90;82.20;;;;;;5028943;28;20702;-80
2021/10/25 13:47:23;;;;;;;8.75;4.57;;;15.90;81.80;;;;;;5028802;28;20190;-80
2021/10/25 13:49:48;;;;;;;7.30;4.38;;;15.90;80.90;;;;;;5028087;28;20030;-80
2021/10/25 13:52:15;;;;;;;7.72;4.28;;;15.90;81.50;;;;;;5028485;28;20036;-80
2021/10/25 13:54:41;;;;;;;6.32;4.50;;;15.90;80.70;;;;;;5028993;28;20041;-80
2021/10/25 13:57:08;;;;;;;7.72;4.47;;;15.90;82.00;;;;;;5029035;28;20419;-80
2021/10/25 13:59:35;;;;;;;7.10;4.32;;;15.90;82.20;;;;;;5026547;28;20090;-81
2021/10/25 14:02:02;;;;;;;5.93;4.07;;;15.90;81.80;;;;;;5029346;28;20370;-80
2021/10/25 14:04:27;;;;;;;6.43;4.55;;;15.90;81.20;;;;;;5032186;28;20128;-80
2021/10/25 14:06:54;;;;;;;5.97;4.05;;;16.00;82.50;;;;;;5030588;28;20113;-80
2021/10/25 14:09:19;;;;;;;6.97;4.35;;;16.00;81.20;;;;;;5031256;28;20025;-79
2021/10/25 14:11:48;;;;;;;7.55;4.30;;;16.00;80.80;;;;;;5031995;28;20382;-80
2021/10/25 14:14:19;;;;;;;6.47;3.80;;;16.00;81.40;;;;;;5031931;28;20056;-80
2021/10/25 14:16:50;;;;;;;7.30;4.78;;;16.10;80.10;;;;;;5031887;28;20029;-80
2021/10/25 14:19:16;;;;;;;7.65;4.57;;;16.10;80.60;;;;;;5031621;28;20033;-80
2021/10/25 14:21:42;;;;;;;9.38;3.72;;;16.10;80.70;;;;;;5031267;28;20041;-80
2021/10/25 14:24:08;;;;;;;9.88;4.50;;;16.10;80.90;;;;;;5037495;28;20021;-80
2021/10/25 14:26:35;;;;;;;6.05;4.32;;;16.10;80.60;;;;;;5044048;28;20037;-80
2021/10/25 14:29:01;;;;;;;7.60;4.80;;;16.00;80.20;;;;;;5031122;28;20026;-80